createdAt,value
2023-02-14T00:02:57.267Z,18.65
2023-02-14T00:06:20.031Z,18.52
2023-02-14T00:09:42.488Z,18.20
2023-02-14T00:13:05.461Z,16.93
2023-02-14T00:16:28.100Z,18.52
2023-02-14T00:19:51.069Z,18.87
2023-02-14T00:23:13.823Z,19.30
2023-02-14T00:26:38.778Z,18.25
2023-02-14T00:30:03.092Z,17.25
2023-02-14T00:33:27.059Z,18.35
2023-02-14T00:36:49.507Z,17.70
2023-02-14T00:40:15.235Z,17.52
2023-02-14T00:43:37.373Z,18.05
2023-02-14T00:47:00.294Z,19.08
2023-02-14T00:50:24.171Z,18.40
2023-02-14T00:53:47.491Z,20.67
2023-02-14T00:57:09.833Z,20.17
2023-02-14T01:00:33.068Z,19.52
2023-02-14T01:03:55.471Z,20.08
2023-02-14T01:07:19.234Z,21.02
2023-02-14T01:10:41.665Z,18.70
2023-02-14T01:14:04.131Z,18.75
2023-02-14T01:17:26.688Z,19.65
2023-02-14T01:20:49.682Z,18.60
2023-02-14T01:24:13.492Z,19.33
2023-02-14T01:27:37.126Z,19.62
2023-02-14T01:30:59.603Z,19.58
2023-02-14T01:34:22.886Z,18.25
2023-02-14T01:37:45.311Z,18.53
2023-02-14T01:41:09.421Z,18.73
2023-02-14T01:44:58.894Z,18.52
2023-02-14T01:48:22.261Z,17.25
2023-02-14T01:51:45.522Z,18.17
2023-02-14T01:55:13.030Z,18.83
2023-02-14T01:58:40.819Z,17.90
2023-02-14T02:02:04.231Z,18.55
2023-02-14T02:05:27.274Z,19.55
2023-02-14T02:08:53.192Z,19.23
2023-02-14T02:12:15.650Z,18.90
2023-02-14T02:15:43.748Z,18.42
2023-02-14T02:19:22.269Z,17.90
2023-02-14T02:23:21.562Z,18.57
2023-02-14T02:27:26.230Z,19.67
2023-02-14T02:31:03.222Z,16.90
2023-02-14T02:34:43.956Z,18.70
2023-02-14T02:38:15.923Z,18.65
2023-02-14T02:41:49.212Z,17.93
2023-02-14T02:45:13.951Z,18.42
2023-02-14T02:48:38.524Z,17.92
2023-02-14T02:52:19.285Z,18.90
2023-02-14T02:56:02.233Z,17.13
2023-02-14T02:59:25.881Z,18.83
2023-02-14T03:03:07.999Z,17.67
2023-02-14T03:06:31.344Z,17.73
2023-02-14T03:09:58.175Z,16.60
2023-02-14T03:13:46.238Z,16.30
2023-02-14T03:17:11.015Z,18.23
2023-02-14T03:20:37.023Z,18.00
2023-02-14T03:24:05.435Z,16.90
2023-02-14T03:27:29.727Z,16.90
2023-02-14T03:30:59.582Z,17.12
2023-02-14T03:34:24.949Z,16.90
2023-02-14T03:37:50.042Z,18.00
2023-02-14T03:41:13.943Z,16.73
2023-02-14T03:44:36.547Z,18.00
2023-02-14T03:48:03.364Z,20.08
2023-02-14T03:51:26.180Z,21.75
2023-02-14T03:54:49.065Z,21.70
2023-02-14T03:58:13.505Z,22.52
2023-02-14T04:01:37.750Z,20.95
2023-02-14T04:05:02.278Z,24.60
2023-02-14T04:08:28.063Z,22.87
2023-02-14T04:11:51.464Z,21.07
2023-02-14T04:15:14.180Z,21.23
2023-02-14T04:18:54.511Z,20.33
2023-02-14T04:22:18.382Z,21.60
2023-02-14T04:25:43.107Z,21.07
2023-02-14T04:29:05.258Z,18.50
2023-02-14T04:32:28.262Z,19.23
2023-02-14T04:35:50.691Z,20.42
2023-02-14T04:39:14.616Z,20.40
2023-02-14T04:42:37.065Z,18.50
2023-02-14T04:45:59.721Z,18.75
2023-02-14T04:49:22.137Z,20.35
2023-02-14T04:52:45.226Z,19.33
2023-02-14T04:56:09.551Z,18.47
2023-02-14T04:59:32.444Z,18.95
2023-02-14T05:02:55.007Z,18.60
2023-02-14T05:06:17.580Z,18.27
2023-02-14T05:09:40.025Z,17.20
2023-02-14T05:13:04.240Z,17.35
2023-02-14T05:16:26.609Z,17.80
2023-02-14T05:19:49.620Z,20.15
2023-02-14T05:23:13.908Z,15.52
2023-02-14T05:26:36.985Z,16.05
2023-02-14T05:30:00.807Z,15.55
2023-02-14T05:33:23.588Z,15.25
2023-02-14T05:36:46.017Z,15.10
2023-02-14T05:40:09.729Z,16.02
2023-02-14T05:43:32.437Z,17.33
2023-02-14T05:46:56.582Z,16.87
2023-02-14T05:50:19.511Z,19.33
2023-02-14T05:53:42.110Z,18.08
2023-02-14T05:57:04.764Z,17.65
2023-02-14T06:00:28.136Z,17.90
2023-02-14T06:03:52.354Z,19.30
2023-02-14T06:07:15.094Z,15.87
2023-02-14T06:10:38.043Z,15.27
2023-02-14T06:14:00.540Z,18.45
2023-02-14T06:17:23.672Z,17.52
2023-02-14T06:20:47.732Z,17.25
2023-02-14T06:24:10.592Z,15.13
2023-02-14T06:27:33.343Z,16.10
2023-02-14T06:30:56.281Z,15.65
2023-02-14T06:34:18.731Z,17.70
2023-02-14T06:37:42.629Z,18.00
2023-02-14T06:41:05.951Z,15.43
2023-02-14T06:44:29.392Z,17.42
2023-02-14T06:47:51.872Z,17.73
2023-02-14T06:51:14.385Z,17.70
2023-02-14T06:54:38.396Z,17.12
2023-02-14T06:58:00.676Z,14.45
2023-02-14T07:01:23.408Z,14.43
2023-02-14T07:04:46.487Z,15.90
2023-02-14T07:08:09.279Z,15.10
2023-02-14T07:11:33.516Z,15.65
2023-02-14T07:14:55.967Z,14.25
2023-02-14T07:18:19.068Z,15.77
2023-02-14T07:21:41.691Z,15.02
2023-02-14T07:25:04.442Z,14.02
2023-02-14T07:28:28.020Z,11.90
2023-02-14T07:31:50.953Z,11.98
2023-02-14T07:35:16.343Z,11.48
2023-02-14T07:38:38.999Z,10.40
2023-02-14T07:42:01.269Z,10.63
2023-02-14T07:45:26.776Z,12.37
2023-02-14T07:48:51.765Z,11.65
2023-02-14T07:52:14.225Z,11.70
2023-02-14T07:55:36.773Z,11.77
2023-02-14T07:58:59.465Z,12.23
2023-02-14T08:02:23.404Z,11.50
2023-02-14T08:05:57.049Z,12.10
2023-02-14T08:09:24.851Z,11.70
2023-02-14T08:13:03.491Z,10.70
2023-02-14T08:16:25.723Z,11.25
2023-02-14T08:19:50.127Z,10.48
2023-02-14T08:23:12.661Z,10.55
2023-02-14T08:26:35.627Z,11.93
2023-02-14T08:29:58.162Z,11.32
2023-02-14T08:33:20.794Z,11.85
2023-02-14T08:36:44.597Z,10.90
2023-02-14T08:40:08.776Z,11.07
2023-02-14T08:43:33.285Z,11.63
2023-02-14T08:46:56.917Z,11.48
2023-02-14T08:50:19.711Z,11.57
2023-02-14T08:53:44.084Z,12.50
2023-02-14T08:57:06.829Z,12.55
2023-02-14T09:00:29.814Z,13.23
2023-02-14T09:03:52.536Z,12.65
2023-02-14T09:07:15.484Z,14.02
2023-02-14T09:10:39.391Z,14.40
2023-02-14T09:14:04.681Z,14.10
2023-02-14T09:17:27.510Z,14.67
2023-02-14T09:20:50.509Z,14.07
2023-02-14T09:24:12.929Z,14.55
2023-02-14T09:27:39.202Z,14.43
2023-02-14T09:31:08.923Z,14.10
2023-02-14T09:34:32.091Z,13.93
2023-02-14T09:37:54.597Z,14.57
2023-02-14T09:41:44.763Z,14.45
2023-02-14T09:45:11.776Z,16.52
2023-02-14T09:48:36.330Z,17.15
2023-02-14T09:51:58.481Z,16.10
2023-02-14T09:55:21.137Z,16.65
2023-02-14T09:58:46.014Z,18.73
2023-02-14T10:02:26.743Z,16.20
2023-02-14T10:05:51.947Z,15.93
2023-02-14T10:09:21.286Z,17.42
2023-02-14T10:12:46.581Z,16.35
2023-02-14T10:16:13.056Z,15.27
2023-02-14T10:19:39.616Z,17.48
2023-02-14T10:23:05.571Z,16.43
2023-02-14T10:26:31.453Z,17.23
2023-02-14T10:29:53.829Z,14.60
2023-02-14T10:33:17.788Z,17.35
2023-02-14T10:36:49.479Z,16.52
2023-02-14T10:40:30.915Z,16.10
2023-02-14T10:43:57.330Z,15.05
2023-02-14T10:47:35.897Z,15.98
2023-02-14T10:51:01.901Z,14.82
2023-02-14T10:54:27.395Z,15.30
2023-02-14T10:57:51.382Z,14.73
2023-02-14T11:01:14.925Z,16.05
2023-02-14T11:04:41.557Z,14.93
2023-02-14T11:08:14.608Z,14.93
2023-02-14T11:11:39.768Z,14.57
2023-02-14T11:15:15.618Z,13.23
2023-02-14T11:18:39.696Z,12.23
2023-02-14T11:22:02.709Z,13.57
2023-02-14T11:25:26.968Z,11.73
2023-02-14T11:28:56.915Z,12.88
2023-02-14T11:32:22.792Z,10.70
2023-02-14T11:35:45.927Z,10.50
2023-02-14T11:39:15.890Z,11.02
2023-02-14T11:42:43.258Z,11.60
2023-02-14T11:46:09.442Z,12.37
2023-02-14T11:49:33.077Z,12.37
2023-02-14T11:52:57.130Z,11.75
2023-02-14T11:56:21.418Z,10.85
2023-02-14T11:59:45.761Z,10.88
2023-02-14T12:03:16.775Z,10.63
2023-02-14T12:06:39.309Z,11.67
2023-02-14T12:10:21.869Z,12.05
2023-02-14T12:13:45.340Z,10.68
2023-02-14T12:17:11.043Z,10.00
2023-02-14T12:20:41.913Z,8.27
2023-02-14T12:24:06.582Z,9.20
2023-02-14T12:27:30.497Z,7.60
2023-02-14T12:30:53.003Z,8.90
2023-02-14T12:34:16.115Z,7.90
2023-02-14T12:37:56.071Z,8.68
2023-02-14T12:41:31.960Z,10.17
2023-02-14T12:44:57.849Z,9.30
2023-02-14T12:48:24.909Z,9.98
2023-02-14T12:51:50.505Z,10.38
2023-02-14T12:55:29.661Z,10.48
2023-02-14T12:58:58.063Z,10.53
2023-02-14T13:02:50.799Z,11.05
2023-02-14T13:06:16.440Z,10.90
2023-02-14T13:09:42.371Z,10.35
2023-02-14T13:13:08.905Z,10.32
2023-02-14T13:16:35.298Z,10.60
2023-02-14T13:20:01.169Z,9.55
2023-02-14T13:23:27.535Z,10.18
2023-02-14T13:26:53.804Z,9.60
2023-02-14T13:30:27.614Z,10.32
2023-02-14T13:33:52.530Z,10.10
2023-02-14T13:37:16.309Z,9.60
2023-02-14T13:40:38.785Z,9.95
2023-02-14T13:44:01.784Z,10.68
2023-02-14T13:47:25.774Z,10.73
2023-02-14T13:50:51.737Z,11.03
2023-02-14T13:54:29.861Z,12.65
2023-02-14T13:58:02.049Z,10.90
2023-02-14T14:01:32.806Z,10.73
2023-02-14T14:04:59.193Z,12.07
2023-02-14T14:08:40.781Z,12.03
2023-02-14T14:12:03.983Z,12.55
2023-02-14T14:15:26.730Z,11.52
2023-02-14T14:18:50.068Z,10.95
2023-02-14T14:22:15.419Z,10.00
2023-02-14T14:25:39.586Z,10.50
2023-02-14T14:29:02.174Z,9.98
2023-02-14T14:32:29.590Z,10.05
2023-02-14T14:35:54.055Z,9.50
2023-02-14T14:39:28.256Z,8.82
2023-02-14T14:42:50.436Z,11.43
2023-02-14T14:46:13.840Z,10.20
2023-02-14T14:49:36.335Z,11.48
2023-02-14T14:53:01.327Z,9.38
2023-02-14T14:56:26.397Z,10.57
2023-02-14T14:59:49.618Z,11.87
2023-02-14T15:03:17.444Z,11.18
2023-02-14T15:06:41.035Z,11.00
2023-02-14T15:10:03.666Z,13.60
2023-02-14T15:13:50.885Z,17.10
2023-02-14T15:17:15.734Z,15.00
2023-02-14T15:20:39.645Z,11.38
2023-02-14T15:24:03.011Z,12.37
2023-02-14T15:27:26.412Z,12.27
2023-02-14T15:30:50.323Z,11.60
2023-02-14T15:34:13.564Z,13.03
2023-02-14T15:37:36.129Z,13.77
2023-02-14T15:40:59.519Z,15.80
2023-02-14T15:44:22.615Z,18.40
2023-02-14T15:47:48.750Z,21.00
2023-02-14T15:51:17.730Z,22.43
2023-02-14T15:54:42.734Z,17.80
2023-02-14T15:58:06.062Z,16.65
2023-02-14T16:01:30.392Z,23.40
2023-02-14T16:04:55.324Z,18.62
2023-02-14T16:08:27.823Z,16.27
2023-02-14T16:11:50.739Z,12.95
2023-02-14T16:15:20.194Z,14.18
2023-02-14T16:18:45.733Z,19.40
2023-02-14T16:22:10.810Z,27.42
2023-02-14T16:25:34.216Z,35.07
2023-02-14T16:28:56.998Z,49.65
2023-02-14T16:32:21.573Z,36.58
2023-02-14T16:35:45.937Z,24.25
2023-02-14T16:39:15.465Z,88.03
2023-02-14T16:42:40.302Z,85.83
2023-02-14T16:46:04.486Z,86.97
2023-02-14T16:49:28.664Z,87.45
2023-02-14T16:52:52.895Z,60.12
2023-02-14T16:56:19.662Z,56.63
2023-02-14T16:59:52.965Z,41.03
2023-02-14T17:03:15.420Z,39.58
2023-02-14T17:06:39.675Z,41.63
2023-02-14T17:10:03.470Z,42.58
2023-02-14T17:13:29.125Z,43.63
2023-02-14T17:16:54.305Z,41.90
2023-02-14T17:20:22.092Z,32.08
2023-02-14T17:23:46.044Z,34.95
2023-02-14T17:27:09.964Z,35.25
2023-02-14T17:30:36.222Z,29.33
2023-02-14T17:34:01.530Z,26.87
2023-02-14T17:37:24.705Z,21.08
2023-02-14T17:40:50.146Z,15.70
2023-02-14T17:44:14.060Z,15.15
2023-02-14T17:47:39.141Z,13.83
2023-02-14T17:51:06.393Z,13.85
2023-02-14T17:54:31.559Z,13.27
2023-02-14T17:57:55.525Z,15.50
2023-02-14T18:01:24.215Z,14.27
2023-02-14T18:04:52.601Z,13.30
2023-02-14T18:08:17.197Z,16.23
2023-02-14T18:11:42.759Z,16.55
2023-02-14T18:15:07.103Z,15.48
2023-02-14T18:18:32.196Z,16.17
2023-02-14T18:21:57.974Z,12.87
2023-02-14T18:25:23.254Z,13.32
2023-02-14T18:28:47.092Z,14.68
2023-02-14T18:32:11.714Z,14.30
2023-02-14T18:35:38.049Z,16.65
2023-02-14T18:39:22.446Z,14.13
2023-02-14T18:42:47.075Z,14.35
2023-02-14T18:46:13.338Z,14.55
2023-02-14T18:49:39.376Z,15.52
2023-02-14T18:53:03.944Z,17.17
2023-02-14T18:56:36.249Z,14.63
2023-02-14T19:00:01.362Z,16.60
2023-02-14T19:03:25.579Z,17.45
2023-02-14T19:06:50.490Z,18.10
2023-02-14T19:10:15.825Z,20.62
2023-02-14T19:13:46.467Z,20.27
2023-02-14T19:17:12.079Z,21.52
2023-02-14T19:20:38.648Z,25.98
2023-02-14T19:24:09.570Z,19.58
2023-02-14T19:27:35.349Z,25.12
2023-02-14T19:31:04.824Z,25.07
2023-02-14T19:34:32.054Z,27.40
2023-02-14T19:37:57.591Z,25.88
2023-02-14T19:41:23.335Z,23.90
2023-02-14T19:44:47.881Z,24.65
2023-02-14T19:48:15.266Z,24.73
2023-02-14T19:51:39.827Z,22.65
2023-02-14T19:55:07.167Z,24.42
2023-02-14T19:58:34.480Z,23.67
2023-02-14T20:02:01.077Z,23.55
2023-02-14T20:05:29.256Z,23.27
2023-02-14T20:08:57.838Z,23.38
2023-02-14T20:12:22.085Z,22.27
2023-02-14T20:15:48.093Z,18.45
2023-02-14T20:19:14.734Z,16.80
2023-02-14T20:22:43.699Z,17.13
2023-02-14T20:26:18.325Z,16.55
2023-02-14T20:29:45.572Z,18.42
2023-02-14T20:33:16.354Z,17.10
2023-02-14T20:36:41.905Z,17.77
2023-02-14T20:40:11.566Z,17.40
2023-02-14T20:43:37.810Z,17.45
2023-02-14T20:47:03.345Z,18.70
2023-02-14T20:50:28.573Z,94.80
2023-02-14T20:53:59.878Z,23.07
2023-02-14T20:57:28.071Z,20.10
2023-02-14T21:00:55.503Z,18.83
2023-02-14T21:04:20.986Z,19.17
2023-02-14T21:07:52.630Z,19.77
2023-02-14T21:11:18.118Z,19.87
2023-02-14T21:14:46.829Z,20.37
2023-02-14T21:18:11.479Z,23.05
2023-02-14T21:21:36.859Z,24.75
2023-02-14T21:25:02.931Z,30.95
2023-02-14T21:28:28.264Z,27.40
2023-02-14T21:31:54.253Z,28.12
2023-02-14T21:35:24.382Z,32.13
2023-02-14T21:38:49.142Z,36.53
2023-02-14T21:42:17.794Z,33.47
2023-02-14T21:45:57.523Z,30.15
2023-02-14T21:49:40.213Z,31.55
2023-02-14T21:53:07.933Z,36.40
2023-02-14T21:56:31.944Z,40.30
2023-02-14T21:59:55.716Z,39.77
2023-02-14T22:03:19.371Z,43.40
2023-02-14T22:06:47.530Z,42.60
2023-02-14T22:10:12.987Z,41.28
2023-02-14T22:13:36.316Z,45.20
2023-02-14T22:16:59.052Z,40.88
2023-02-14T22:20:21.738Z,41.83
2023-02-14T22:23:46.088Z,42.90
2023-02-14T22:27:09.018Z,42.33
2023-02-14T22:30:31.481Z,42.57
2023-02-14T22:33:54.075Z,43.55
2023-02-14T22:37:16.556Z,41.22
2023-02-14T22:40:43.279Z,38.25
2023-02-14T22:44:05.946Z,38.30
2023-02-14T22:47:28.608Z,38.15
2023-02-14T22:50:51.131Z,39.25
2023-02-14T22:54:14.955Z,36.63
2023-02-14T22:57:38.901Z,37.27
2023-02-14T23:01:01.694Z,37.90
2023-02-14T23:04:24.879Z,38.40
2023-02-14T23:07:49.684Z,38.65
2023-02-14T23:11:14.668Z,39.83
2023-02-14T23:14:56.203Z,35.47
2023-02-14T23:18:36.497Z,34.47
2023-02-14T23:21:59.234Z,31.58
2023-02-14T23:25:21.539Z,29.77
2023-02-14T23:28:44.021Z,30.70
2023-02-14T23:32:08.008Z,27.10
2023-02-14T23:35:31.150Z,27.62
2023-02-14T23:38:53.655Z,28.48
2023-02-14T23:42:16.195Z,27.73
2023-02-14T23:45:41.194Z,30.05
2023-02-14T23:49:06.596Z,26.73
2023-02-14T23:52:29.240Z,26.15
2023-02-14T23:55:51.837Z,26.25
2023-02-14T23:59:14.663Z,27.80
